Preview of NWS' New Version of Forecast
This preview is not operational and should not be used for support decisions.

Terminal Aerodrome Forecast (TAF)

Issued by National Weather Service (NWS)

                            
000
FTUS42 KMFL 240437 AAB
TAFMIA
TAF AMD
KMIA 240437Z 2405/2506 14015KT P6SM BKN035
      TEMPO 2405/2407 BKN025
     FM240800 16020KT P6SM VCSH SCT020 BKN030 PROB30 2414/2418 TSRA
      SCT010 BKN035CB
     FM241800 20026KT P6SM SHRA BKN035 OVC050
     FM242300 23010KT P6SM SCT035 OVC050=